Time;durP1;ratioP1;P1;durP2;ratioP2;P2;SDS_P1;SDS_P2;PMS_P1;PMS_P2;Temp;Humidity;BMP_temperature;BMP_pressure;BME280_temperature;BME280_humidity;BME280_pressure;Samples;Min_cycle;Max_cycle;Signal;HPM_P1;HPM_P2
2023/06/16 00:01:20;;;;;;;20.92;18.88;;;;;;;18.07;86.04;94103.47;4210646;28;20424;-57
2023/06/16 00:03:23;;;;;;;20.23;18.20;;;;;;;18.12;85.57;94104.44;4210971;28;20044;-57
2023/06/16 00:05:25;;;;;;;21.02;18.92;;;;;;;18.18;85.73;94100.91;4211141;28;20093;-55
2023/06/16 00:07:33;;;;;;;21.27;18.98;;;;;;;18.18;85.37;94108.88;4212530;28;20509;-57
2023/06/16 00:09:35;;;;;;;19.92;17.95;;;;;;;18.20;85.69;94106.81;4205335;28;20058;-56
2023/06/16 00:11:37;;;;;;;20.27;18.27;;;;;;;18.26;85.67;94105.09;4210381;28;20044;-57
2023/06/16 00:13:39;;;;;;;20.20;18.08;;;;;;;18.33;85.55;94099.75;4204431;28;20079;-56
2023/06/16 00:15:43;;;;;;;20.92;18.63;;;;;;;18.37;85.24;94104.38;4220168;28;20550;-58
2023/06/16 00:17:46;;;;;;;18.98;16.98;;;;;;;18.33;84.35;94095.25;4211520;28;20044;-55
2023/06/16 00:19:48;;;;;;;20.15;17.67;;;;;;;18.31;84.45;94099.16;4209447;28;20052;-58
2023/06/16 00:21:50;;;;;;;19.65;17.65;;;;;;;18.32;84.76;94098.09;4207596;28;20513;-57
2023/06/16 00:23:52;;;;;;;20.92;18.67;;;;;;;18.32;84.66;94095.47;4210591;28;20048;-56
2023/06/16 00:25:55;;;;;;;20.23;18.25;;;;;;;18.33;84.82;94099.75;4209528;28;20642;-58
2023/06/16 00:27:57;;;;;;;20.80;18.38;;;;;;;18.25;84.78;94102.69;4210485;28;20079;-58
2023/06/16 00:29:58;;;;;;;21.38;18.67;;;;;;;18.24;85.29;94096.59;4211673;28;20475;-56
2023/06/16 00:32:00;;;;;;;20.35;18.35;;;;;;;18.35;85.63;94098.47;4202122;28;20087;-56
2023/06/16 00:34:02;;;;;;;22.75;19.55;;;;;;;18.42;85.28;94093.09;4205675;28;20563;-57
2023/06/16 00:36:04;;;;;;;21.33;18.85;;;;;;;18.46;85.04;94088.19;4210876;28;20421;-54
2023/06/16 00:38:06;;;;;;;22.70;20.30;;;;;;;18.55;85.18;94086.84;4207735;28;20055;-57
2023/06/16 00:40:08;;;;;;;21.70;19.25;;;;;;;18.61;85.01;94093.91;4203114;28;20427;-54
2023/06/16 00:42:10;;;;;;;22.27;20.00;;;;;;;18.67;84.58;94095.66;4218314;28;20601;-55
2023/06/16 00:44:11;;;;;;;21.13;18.92;;;;;;;18.72;84.39;94095.00;4211966;28;20389;-55
2023/06/16 00:46:27;;;;;;;22.50;20.13;;;;;;;18.79;84.00;94093.06;4214208;28;20051;-58
2023/06/16 00:48:30;;;;;;;20.77;18.63;;;;;;;18.79;83.73;94091.22;4210901;28;20558;-56
2023/06/16 00:50:31;;;;;;;24.58;20.23;;;;;;;18.82;83.39;94084.66;4206509;28;20126;-57
2023/06/16 00:52:36;;;;;;;22.25;19.95;;;;;;;18.83;83.57;94079.13;4211286;28;20060;-55
2023/06/16 00:54:38;;;;;;;24.02;21.52;;;;;;;18.88;83.68;94085.63;4205239;28;20117;-57
2023/06/16 00:56:41;;;;;;;23.35;20.95;;;;;;;18.88;83.52;94075.81;4208821;28;20097;-58
2023/06/16 00:58:43;;;;;;;20.98;18.85;;;;;;;18.88;83.00;94073.16;4210782;28;20083;-57
2023/06/16 01:00:46;;;;;;;20.63;18.45;;;;;;;18.91;83.28;94069.25;4208824;28;20502;-56
2023/06/16 01:02:48;;;;;;;20.40;18.30;;;;;;;18.94;83.33;94074.09;4213767;28;20459;-57
2023/06/16 01:04:51;;;;;;;21.77;19.58;;;;;;;18.97;83.18;94068.31;4208334;28;20044;-56
2023/06/16 01:07:05;;;;;;;21.77;19.48;;;;;;;19.00;83.27;94068.69;4220908;28;20087;-58
2023/06/16 01:09:34;;;;;;;20.52;18.25;;;;;;;18.98;82.89;94060.16;4214700;28;20052;-53
2023/06/16 01:12:08;;;;;;;18.67;16.67;;;;;;;18.99;82.84;94066.25;4211928;28;20109;-55
2023/06/16 01:14:22;;;;;;;17.55;15.27;;;;;;;18.99;82.82;94063.59;4212375;28;20074;-54
2023/06/16 01:16:30;;;;;;;18.35;16.40;;;;;;;19.00;82.62;94059.94;4210713;28;20047;-51
2023/06/16 01:18:33;;;;;;;21.48;17.98;;;;;;;19.02;82.55;94056.00;4217849;28;20079;-55
2023/06/16 01:20:38;;;;;;;19.98;17.75;;;;;;;19.02;82.38;94061.31;4219074;28;20052;-56
2023/06/16 01:23:00;;;;;;;19.67;16.73;;;;;;;19.06;82.32;94064.34;4211625;28;20405;-58
2023/06/16 01:25:03;;;;;;;18.55;16.38;;;;;;;19.06;82.21;94058.19;4213095;28;20079;-57
2023/06/16 01:27:08;;;;;;;18.60;16.52;;;;;;;19.08;82.30;94056.97;4206760;28;20101;-56
2023/06/16 01:29:11;;;;;;;18.05;16.15;;;;;;;19.09;81.94;94055.09;4212074;28;20048;-55
2023/06/16 01:31:15;;;;;;;20.17;17.17;;;;;;;19.09;81.89;94061.22;4211288;28;20097;-56
2023/06/16 01:33:19;;;;;;;18.92;16.90;;;;;;;19.09;82.06;94055.91;4214459;28;20622;-55
2023/06/16 01:35:21;;;;;;;;;;;;;;;19.11;82.06;94051.19;4210597;28;20075;-57
2023/06/16 01:37:22;;;;;;;20.23;17.33;;;;;;;19.12;82.37;94051.97;4211098;28;20479;-56
2023/06/16 01:39:24;;;;;;;17.70;15.80;;;;;;;19.13;81.93;94045.66;4213425;28;20044;-57
2023/06/16 01:41:27;;;;;;;19.90;17.80;;;;;;;19.14;82.20;94048.06;4212910;28;20040;-56
2023/06/16 01:43:29;;;;;;;22.42;19.35;;;;;;;19.15;82.21;94054.19;4212978;28;20102;-57
2023/06/16 01:45:31;;;;;;;24.35;19.75;;;;;;;19.14;82.47;94057.88;4218632;28;20135;-55
2023/06/16 01:47:34;;;;;;;21.25;19.05;;;;;;;19.09;82.44;94050.59;4212544;28;20506;-56
2023/06/16 01:49:38;;;;;;;24.05;21.20;;;;;;;19.06;82.69;94044.91;4211334;28;20130;-59
2023/06/16 01:51:40;;;;;;;20.83;18.40;;;;;;;19.03;82.80;94054.16;4212194;28;20078;-55
2023/06/16 01:53:41;;;;;;;18.67;16.80;;;;;;;18.99;82.96;94048.50;4225699;28;20052;-59
2023/06/16 01:55:50;;;;;;;18.02;16.08;;;;;;;19.01;83.02;94048.25;4212391;28;20060;-58
2023/06/16 01:57:53;;;;;;;16.75;15.15;;;;;;;18.99;82.94;94045.84;4213281;28;20480;-59
2023/06/16 02:00:04;;;;;;;18.30;14.93;;;;;;;18.99;82.92;94042.38;4211396;28;20140;-58
2023/06/16 02:02:12;;;;;;;19.00;16.15;;;;;;;18.96;82.85;94043.63;4213608;28;20048;-59
2023/06/16 02:04:15;;;;;;;17.85;14.63;;;;;;;18.94;82.92;94043.06;4210686;28;20152;-58
2023/06/16 02:06:46;;;;;;;15.30;13.70;;;;;;;18.92;83.10;94036.34;4194778;28;20048;-54
2023/06/16 02:08:50;;;;;;;15.73;13.73;;;;;;;18.94;82.70;94039.59;4208830;28;20044;-60
2023/06/16 02:10:52;;;;;;;14.85;13.35;;;;;;;18.94;82.79;94045.72;4211597;28;20055;-59
2023/06/16 02:12:53;;;;;;;17.67;14.90;;;;;;;18.95;82.87;94043.84;4210232;28;20066;-57
2023/06/16 02:14:55;;;;;;;14.70;13.30;;;;;;;18.93;82.80;94046.75;4211049;28;20052;-56
2023/06/16 02:16:57;;;;;;;16.55;14.25;;;;;;;18.93;82.95;94045.94;4212298;28;20059;-58
2023/06/16 02:18:59;;;;;;;16.15;14.52;;;;;;;18.94;82.93;94051.00;4219714;28;20044;-56
2023/06/16 02:21:01;;;;;;;15.73;14.05;;;;;;;18.92;82.82;94045.13;4221356;28;20048;-56
2023/06/16 02:23:02;;;;;;;16.25;14.55;;;;;;;18.89;82.82;94050.09;4221259;27;20126;-57
2023/06/16 02:25:05;;;;;;;16.63;14.30;;;;;;;18.83;82.68;94046.50;4212630;28;20452;-59
2023/06/16 02:27:08;;;;;;;19.92;16.13;;;;;;;18.82;83.13;94047.50;4212550;28;20048;-59
2023/06/16 02:29:10;;;;;;;20.75;16.10;;;;;;;18.81;83.29;94049.34;4214203;28;20054;-58
2023/06/16 02:31:17;;;;;;;17.83;15.88;;;;;;;18.83;83.62;94051.78;4219777;28;20143;-59
2023/06/16 02:33:20;;;;;;;18.25;16.42;;;;;;;18.87;83.59;94046.84;4212585;28;20070;-60
2023/06/16 02:35:22;;;;;;;18.80;16.90;;;;;;;18.90;83.12;94038.44;4210356;28;20487;-58
2023/06/16 02:37:25;;;;;;;18.50;16.50;;;;;;;18.91;82.96;94046.16;4211592;28;20101;-57
2023/06/16 02:39:27;;;;;;;18.98;16.98;;;;;;;18.91;82.60;94048.81;4212643;28;20048;-59
2023/06/16 02:41:28;;;;;;;17.75;15.82;;;;;;;18.91;82.63;94050.69;4212890;28;20050;-57
2023/06/16 02:43:31;;;;;;;17.73;15.60;;;;;;;18.93;82.54;94049.41;4212999;28;20056;-58
2023/06/16 02:45:33;;;;;;;18.42;16.40;;;;;;;18.93;82.52;94051.22;4206201;28;20098;-59
2023/06/16 02:47:35;;;;;;;19.17;16.38;;;;;;;18.90;82.56;94043.72;4219316;28;20052;-59
2023/06/16 02:49:42;;;;;;;20.48;17.35;;;;;;;18.92;83.03;94044.31;4218426;28;20056;-58
2023/06/16 02:51:44;;;;;;;17.20;15.45;;;;;;;18.96;82.89;94045.50;4213013;28;20121;-57
2023/06/16 02:53:46;;;;;;;19.55;17.60;;;;;;;18.98;82.86;94048.72;4210909;28;20052;-57
2023/06/16 02:55:48;;;;;;;21.45;17.55;;;;;;;18.96;82.61;94045.50;4211817;28;20052;-58
2023/06/16 02:57:50;;;;;;;20.00;17.90;;;;;;;18.94;82.86;94040.41;4217547;28;20048;-58
2023/06/16 02:59:51;;;;;;;20.58;17.20;;;;;;;18.96;82.91;94042.84;4209359;28;20044;-57
2023/06/16 03:01:53;;;;;;;21.23;18.15;;;;;;;18.95;82.70;94043.84;4208514;28;20052;-59
2023/06/16 03:03:56;;;;;;;20.10;17.90;;;;;;;18.97;82.58;94039.97;4211756;28;20402;-58
2023/06/16 03:06:02;;;;;;;22.92;18.08;;;;;;;18.99;82.45;94040.53;4213069;28;22360;-57
2023/06/16 03:08:04;;;;;;;22.27;17.85;;;;;;;19.03;82.42;94040.88;4214091;28;20044;-58
2023/06/16 03:10:07;;;;;;;21.13;18.00;;;;;;;19.02;81.99;94037.44;4216382;28;20048;-57
2023/06/16 03:12:10;;;;;;;19.92;17.33;;;;;;;19.03;82.02;94041.69;4215182;28;20543;-58
2023/06/16 03:14:11;;;;;;;22.07;18.77;;;;;;;19.02;81.96;94033.97;4215571;28;20462;-53
2023/06/16 03:16:13;;;;;;;19.90;16.55;;;;;;;19.04;81.99;94037.19;4211362;28;20062;-57
2023/06/16 03:18:15;;;;;;;20.63;17.10;;;;;;;19.04;81.97;94047.81;4212159;28;20036;-54
2023/06/16 03:20:17;;;;;;;21.05;18.15;;;;;;;19.05;81.87;94036.16;4211087;28;20101;-58
2023/06/16 03:22:21;;;;;;;19.23;16.48;;;;;;;19.06;81.90;94039.59;4212295;28;20051;-57
2023/06/16 03:24:23;;;;;;;20.92;17.67;;;;;;;19.08;82.25;94043.69;4211135;28;20055;-55
2023/06/16 03:26:25;;;;;;;26.48;17.88;;;;;;;19.05;81.88;94035.34;4211879;28;20119;-60
2023/06/16 03:28:26;;;;;;;22.60;18.42;;;;;;;19.07;82.16;94035.94;4211721;28;20456;-59
2023/06/16 03:30:28;;;;;;;19.98;17.13;;;;;;;19.06;82.21;94031.66;4210973;28;20056;-58
2023/06/16 03:32:30;;;;;;;19.52;17.35;;;;;;;19.02;82.27;94033.97;4211071;28;20417;-59
2023/06/16 03:34:32;;;;;;;22.77;17.83;;;;;;;18.99;82.21;94029.94;4210734;28;20048;-58
2023/06/16 03:36:36;;;;;;;17.65;15.10;;;;;;;18.98;82.62;94033.59;4201491;28;20144;-57
2023/06/16 03:38:38;;;;;;;19.00;14.55;;;;;;;18.97;82.53;94026.69;4199981;28;20048;-58
2023/06/16 03:40:39;;;;;;;18.42;13.82;;;;;;;18.95;82.80;94022.63;4211058;28;20051;-57
2023/06/16 03:42:41;;;;;;;15.95;14.02;;;;;;;18.92;82.32;94028.41;4217398;28;20051;-56
2023/06/16 03:44:43;;;;;;;15.68;13.50;;;;;;;18.90;82.73;94027.81;4211612;28;20139;-56
2023/06/16 03:46:44;;;;;;;14.45;12.95;;;;;;;18.90;82.66;94022.50;4210570;28;20052;-59
2023/06/16 03:48:46;;;;;;;15.45;13.50;;;;;;;18.91;82.98;94026.78;4208650;28;20047;-54
2023/06/16 03:50:48;;;;;;;15.65;13.00;;;;;;;18.90;82.78;94019.84;4210807;28;20059;-54
2023/06/16 03:52:50;;;;;;;16.15;12.65;;;;;;;18.93;83.08;94016.72;4211238;28;20401;-55
2023/06/16 03:55:13;;;;;;;16.65;13.95;;;;;;;18.78;82.33;94011.88;4210964;28;20052;-57
2023/06/16 03:57:16;;;;;;;16.50;14.57;;;;;;;18.74;83.01;94011.47;4200990;28;20547;-57
2023/06/16 03:59:18;;;;;;;16.42;14.60;;;;;;;18.77;83.58;94013.66;4203239;28;20044;-57
2023/06/16 04:01:21;;;;;;;15.43;13.82;;;;;;;18.72;83.38;94004.78;4207384;28;20052;-59
2023/06/16 04:03:25;;;;;;;18.27;14.10;;;;;;;18.65;83.66;94004.03;4211006;28;20052;-57
2023/06/16 04:05:27;;;;;;;17.60;15.23;;;;;;;18.58;84.03;94012.94;4208855;28;20047;-58
2023/06/16 04:07:30;;;;;;;18.63;14.52;;;;;;;18.59;84.48;94013.72;4211875;28;20044;-54
2023/06/16 04:09:32;;;;;;;17.75;15.82;;;;;;;18.61;84.71;94006.34;4210550;28;20106;-58
2023/06/16 04:11:33;;;;;;;19.60;15.27;;;;;;;18.60;84.52;94002.88;4212110;28;20052;-59
2023/06/16 04:13:35;;;;;;;19.65;15.10;;;;;;;18.57;84.37;93998.03;4211367;28;20457;-60
2023/06/16 04:15:37;;;;;;;17.85;15.27;;;;;;;18.60;84.79;93999.41;4211593;28;20045;-60
2023/06/16 04:17:38;;;;;;;16.75;14.10;;;;;;;18.56;84.74;93998.25;4210950;28;20044;-59
2023/06/16 04:19:41;;;;;;;17.33;15.52;;;;;;;18.54;85.16;94001.16;4199906;28;20048;-59
2023/06/16 04:21:43;;;;;;;16.63;14.93;;;;;;;18.55;85.26;94010.72;4212432;28;20048;-60
2023/06/16 04:23:45;;;;;;;16.98;15.18;;;;;;;18.60;85.64;94008.19;4209959;28;20044;-61
2023/06/16 04:25:48;;;;;;;16.30;14.60;;;;;;;18.70;85.64;94004.19;4201974;28;20044;-57
2023/06/16 04:27:49;;;;;;;19.13;15.75;;;;;;;18.79;85.32;94001.00;4213527;28;20044;-59
2023/06/16 04:29:52;;;;;;;21.80;16.33;;;;;;;18.83;84.84;94007.47;4210869;28;20044;-58
2023/06/16 04:31:59;;;;;;;21.90;17.02;;;;;;;18.85;84.67;94001.97;4211905;28;20063;-60
2023/06/16 04:34:04;;;;;;;19.20;15.75;;;;;;;18.87;84.32;94004.41;4207764;28;20048;-61
2023/06/16 04:38:26;;;;;;;19.60;15.88;;;;;;;18.81;84.17;94006.91;4211988;28;20109;-60
2023/06/16 04:40:27;;;;;;;20.95;18.55;;;;;;;18.81;84.64;94008.75;4215033;28;20059;-58
2023/06/16 04:42:29;;;;;;;19.52;17.45;;;;;;;18.83;84.81;94007.47;4214579;28;20436;-59
2023/06/16 04:44:31;;;;;;;22.08;17.95;;;;;;;18.88;84.46;94003.34;4208782;28;20401;-59
2023/06/16 04:46:32;;;;;;;20.30;18.02;;;;;;;18.93;84.42;94006.94;4207596;28;20052;-61
2023/06/16 04:48:35;;;;;;;22.25;18.65;;;;;;;18.96;84.17;94006.47;4214339;28;20470;-61
2023/06/16 04:50:37;;;;;;;21.77;18.20;;;;;;;18.94;83.82;93999.78;4213245;28;20044;-58
2023/06/16 04:52:39;;;;;;;26.23;18.60;;;;;;;18.98;83.88;94006.25;4214035;28;20066;-60
2023/06/16 04:54:41;;;;;;;19.40;17.30;;;;;;;19.00;83.96;94005.00;4213586;28;20101;-60
2023/06/16 04:56:43;;;;;;;19.52;17.17;;;;;;;19.01;83.89;94006.63;4206337;28;20386;-63
2023/06/16 04:58:45;;;;;;;21.25;16.55;;;;;;;19.02;83.49;93997.59;4223853;27;20047;-54
2023/06/16 05:00:46;;;;;;;19.48;15.38;;;;;;;18.99;82.88;94005.22;4224410;28;20047;-58
2023/06/16 05:02:48;;;;;;;20.20;15.65;;;;;;;18.91;82.54;94009.03;4220889;28;20297;-59
2023/06/16 05:04:51;;;;;;;17.92;15.30;;;;;;;18.90;83.25;94009.22;4218527;28;20051;-60
2023/06/16 05:06:53;;;;;;;18.45;14.63;;;;;;;18.73;82.71;94004.53;4220513;28;20488;-57
2023/06/16 05:08:55;;;;;;;17.92;13.73;;;;;;;18.74;83.03;94013.31;4221476;28;20047;-57
2023/06/16 05:10:56;;;;;;;17.20;13.52;;;;;;;18.56;82.78;94009.69;4209514;28;20048;-57
2023/06/16 05:12:58;;;;;;;16.88;13.90;;;;;;;18.35;83.64;94018.94;4214646;28;20050;-60
2023/06/16 05:15:00;;;;;;;16.02;14.23;;;;;;;18.21;84.32;94006.88;4201485;28;20044;-61
2023/06/16 05:17:02;;;;;;;19.40;14.43;;;;;;;18.20;85.01;94013.22;4212609;28;20132;-58
2023/06/16 05:19:04;;;;;;;15.38;13.73;;;;;;;18.23;85.44;94010.09;4214881;28;20052;-61
2023/06/16 05:21:06;;;;;;;15.82;13.40;;;;;;;18.28;85.41;94017.38;4221263;28;20459;-59
2023/06/16 05:23:07;;;;;;;17.08;14.30;;;;;;;18.34;85.23;94005.91;4213799;28;20052;-58
2023/06/16 05:25:09;;;;;;;16.65;13.57;;;;;;;18.29;83.54;94013.72;4213260;28;20138;-60
2023/06/16 05:27:11;;;;;;;16.88;13.70;;;;;;;18.36;84.05;94009.13;4214204;28;20101;-59
2023/06/16 05:29:12;;;;;;;15.48;13.80;;;;;;;18.45;83.97;94015.75;4213525;28;20044;-59
2023/06/16 05:31:15;;;;;;;14.63;13.07;;;;;;;18.37;83.39;94016.88;4212665;28;20529;-58
2023/06/16 05:33:17;;;;;;;15.63;12.85;;;;;;;18.35;83.75;94007.53;4213344;28;20046;-60
2023/06/16 05:35:18;;;;;;;14.90;13.40;;;;;;;18.26;83.95;94008.84;4212966;28;20535;-60
2023/06/16 05:37:21;;;;;;;17.40;13.95;;;;;;;18.14;84.74;94011.44;4220457;28;20132;-60
2023/06/16 05:39:22;;;;;;;14.20;12.90;;;;;;;18.22;85.14;94019.09;4219144;28;20051;-60
2023/06/16 05:41:26;;;;;;;14.85;13.45;;;;;;;18.25;84.45;94013.34;4214901;28;20055;-61
2023/06/16 05:43:27;;;;;;;;;;;;;;;18.33;84.36;94010.41;4214682;28;20052;-59
2023/06/16 05:45:29;;;;;;;16.35;13.23;;;;;;;18.42;84.37;94009.03;4212115;28;19920;-62
2023/06/16 05:47:31;;;;;;;16.95;13.30;;;;;;;18.50;84.10;94010.59;4212891;28;20040;-59
2023/06/16 05:49:32;;;;;;;15.15;13.65;;;;;;;18.47;83.34;94016.31;4212515;28;20138;-59
2023/06/16 05:51:35;;;;;;;16.63;13.50;;;;;;;18.45;83.51;94022.88;4208850;28;20059;-61
2023/06/16 05:53:37;;;;;;;15.40;13.80;;;;;;;18.37;83.48;94016.88;4212780;28;20533;-60
2023/06/16 05:55:40;;;;;;;14.93;13.43;;;;;;;18.38;83.74;94009.72;4206478;28;20428;-58
2023/06/16 05:57:42;;;;;;;16.65;15.05;;;;;;;18.46;83.99;94020.03;4212606;28;20064;-59
2023/06/16 05:59:43;;;;;;;16.58;14.52;;;;;;;18.36;83.62;94022.38;4209891;28;20159;-59
2023/06/16 06:01:46;;;;;;;16.60;14.95;;;;;;;18.46;84.15;94025.34;4211914;28;20056;-60
2023/06/16 06:03:47;;;;;;;15.45;13.60;;;;;;;18.32;84.44;94022.03;4216904;28;20417;-57
2023/06/16 06:05:50;;;;;;;16.50;14.57;;;;;;;18.33;84.64;94023.66;4213508;28;20090;-60
2023/06/16 06:07:52;;;;;;;16.38;14.65;;;;;;;18.41;85.18;94020.69;4214449;28;20050;-58
2023/06/16 06:09:54;;;;;;;17.20;15.40;;;;;;;18.59;85.30;94024.34;4214584;28;20044;-58
2023/06/16 06:11:56;;;;;;;17.50;15.57;;;;;;;18.74;85.05;94016.78;4213724;28;20056;-55
2023/06/16 06:13:57;;;;;;;17.58;15.80;;;;;;;18.85;84.22;94027.69;4209585;28;20057;-57
2023/06/16 06:16:01;;;;;;;19.38;15.20;;;;;;;19.03;83.68;94024.94;4203061;28;20047;-58
2023/06/16 06:18:03;;;;;;;18.25;14.70;;;;;;;19.19;82.71;94026.16;4213032;28;20050;-60
2023/06/16 06:20:06;;;;;;;15.57;14.07;;;;;;;19.34;82.78;94020.41;4213184;28;20043;-57
2023/06/16 06:22:07;;;;;;;16.00;14.23;;;;;;;19.23;81.28;94028.13;4213679;28;20167;-58
2023/06/16 06:24:09;;;;;;;13.85;12.60;;;;;;;19.20;80.99;94025.91;4210654;28;20044;-59
2023/06/16 06:26:11;;;;;;;15.00;13.60;;;;;;;19.31;81.64;94013.69;4207355;28;20549;-60
2023/06/16 06:28:13;;;;;;;14.50;12.65;;;;;;;19.48;82.02;94013.81;4207391;28;20086;-59
2023/06/16 06:30:14;;;;;;;14.70;13.20;;;;;;;19.65;81.83;94021.91;4212610;28;20113;-59
2023/06/16 06:32:16;;;;;;;15.85;14.25;;;;;;;19.80;81.56;94019.59;4212355;28;20127;-58
2023/06/16 06:34:18;;;;;;;15.60;13.93;;;;;;;19.92;81.20;94019.59;4211480;28;20044;-60
2023/06/16 06:36:25;;;;;;;15.95;14.25;;;;;;;20.02;80.43;94016.34;4214166;28;20424;-58
2023/06/16 06:38:27;;;;;;;16.50;14.73;;;;;;;20.13;80.02;94012.03;4210857;28;20055;-58
2023/06/16 06:40:28;;;;;;;18.95;14.60;;;;;;;20.23;80.19;94012.25;4211801;28;20611;-58
2023/06/16 06:42:30;;;;;;;16.58;12.68;;;;;;;20.27;79.78;94010.75;4211598;28;20494;-59
2023/06/16 06:44:32;;;;;;;14.27;12.85;;;;;;;20.29;78.46;94006.00;4213084;28;20047;-58
2023/06/16 06:46:34;;;;;;;14.65;12.38;;;;;;;20.28;78.50;94004.38;4211607;28;20052;-59
2023/06/16 06:48:36;;;;;;;15.38;12.40;;;;;;;20.31;78.57;94009.22;4211946;28;20052;-58
2023/06/16 06:50:37;;;;;;;18.25;13.85;;;;;;;20.40;78.84;94007.81;4208907;28;20128;-59
2023/06/16 06:52:40;;;;;;;14.68;12.43;;;;;;;20.53;79.12;93997.94;4212684;28;20052;-59
2023/06/16 06:54:41;;;;;;;11.95;10.65;;;;;;;20.35;76.80;93997.06;4214959;28;20055;-56
2023/06/16 06:56:43;;;;;;;13.55;11.10;;;;;;;20.35;77.20;93994.41;4219011;28;20063;-61
2023/06/16 06:58:44;;;;;;;11.88;10.68;;;;;;;20.26;77.54;94001.13;4210402;28;20052;-58
2023/06/16 07:00:46;;;;;;;13.30;11.13;;;;;;;20.05;77.36;93992.75;4210654;28;20044;-59
2023/06/16 07:02:48;;;;;;;11.85;10.48;;;;;;;19.93;78.33;94001.81;4218809;28;20047;-61
2023/06/16 07:04:50;;;;;;;13.05;10.95;;;;;;;20.08;78.35;93990.69;4222182;28;20055;-60
2023/06/16 07:06:52;;;;;;;11.40;10.13;;;;;;;20.15;78.32;93994.00;4214750;28;20127;-60
2023/06/16 07:08:53;;;;;;;16.15;9.93;;;;;;;20.18;77.30;93993.53;4212978;28;20117;-59
2023/06/16 07:10:58;;;;;;;11.80;10.02;;;;;;;20.03;77.87;94000.16;4219098;28;20044;-61
2023/06/16 07:13:00;;;;;;;11.93;9.57;;;;;;;19.98;77.18;93985.94;4213002;28;20048;-62
2023/06/16 07:15:02;;;;;;;11.73;9.30;;;;;;;19.92;77.48;93989.53;4211651;28;20044;-58
2023/06/16 07:17:04;;;;;;;11.57;9.82;;;;;;;20.02;77.95;94000.38;4211478;28;20048;-59
2023/06/16 07:19:06;;;;;;;15.27;9.23;;;;;;;20.10;77.87;93996.56;4210839;28;20050;-61
2023/06/16 07:21:07;;;;;;;10.57;9.57;;;;;;;20.21;77.89;93998.38;4207890;28;20577;-59
2023/06/16 07:23:09;;;;;;;12.95;10.00;;;;;;;20.20;77.06;94002.91;4212160;28;20055;-59
2023/06/16 07:25:12;;;;;;;14.98;10.55;;;;;;;20.21;77.39;93995.72;4211339;28;20490;-58
2023/06/16 07:27:13;;;;;;;29.48;10.13;;;;;;;20.38;77.27;94003.78;4211779;28;20576;-61
2023/06/16 07:29:15;;;;;;;11.63;9.82;;;;;;;20.46;76.32;94006.84;4210954;28;20441;-59
2023/06/16 07:31:17;;;;;;;13.13;10.68;;;;;;;20.53;76.15;94012.03;4210885;28;20048;-59
2023/06/16 07:33:18;;;;;;;12.18;10.85;;;;;;;20.62;76.17;94004.50;4212142;28;20044;-58
2023/06/16 07:35:20;;;;;;;14.77;11.50;;;;;;;20.71;74.60;94002.28;4211161;28;20482;-58
2023/06/16 07:37:22;;;;;;;13.15;11.80;;;;;;;20.75;74.89;94004.22;4211587;28;20143;-59
2023/06/16 07:39:24;;;;;;;14.02;12.50;;;;;;;20.77;73.46;94003.97;4212708;28;20051;-62
2023/06/16 07:41:25;;;;;;;14.73;12.05;;;;;;;20.74;73.37;94015.13;4211319;28;20052;-61
2023/06/16 07:43:27;;;;;;;16.08;13.13;;;;;;;20.59;73.92;94016.44;4212913;28;20040;-60
2023/06/16 07:45:31;;;;;;;15.15;13.38;;;;;;;20.74;74.49;94020.44;4209441;28;20044;-58
2023/06/16 07:47:33;;;;;;;15.73;11.85;;;;;;;20.80;74.11;94012.31;4203923;28;20423;-60
2023/06/16 07:49:35;;;;;;;16.55;12.70;;;;;;;20.92;74.08;94017.56;4215315;28;20052;-61
2023/06/16 07:51:38;;;;;;;16.77;13.45;;;;;;;20.98;73.35;94018.47;4214902;28;20566;-58
2023/06/16 07:53:41;;;;;;;13.40;11.80;;;;;;;20.95;72.33;94002.94;4212861;28;20623;-60
2023/06/16 07:55:43;;;;;;;14.43;11.80;;;;;;;21.00;71.80;94013.72;4211181;28;20521;-62
2023/06/16 07:57:45;;;;;;;12.52;11.23;;;;;;;21.16;71.69;94014.75;4209782;28;20123;-58
2023/06/16 07:59:47;;;;;;;13.90;12.18;;;;;;;21.01;70.28;94007.31;4211271;28;20036;-60
2023/06/16 08:01:48;;;;;;;12.95;11.40;;;;;;;20.94;70.69;94007.47;4204874;28;20492;-60
2023/06/16 08:03:50;;;;;;;14.30;11.48;;;;;;;21.01;70.46;94012.66;4210390;28;20052;-60
2023/06/16 08:05:52;;;;;;;13.07;11.70;;;;;;;21.10;70.29;94015.72;4211168;28;20051;-58
2023/06/16 08:07:54;;;;;;;14.85;12.65;;;;;;;21.16;71.24;94015.56;4211431;28;20044;-59
2023/06/16 08:09:56;;;;;;;15.05;12.43;;;;;;;21.25;70.95;94019.47;4210143;28;20064;-57
2023/06/16 08:11:57;;;;;;;14.90;12.00;;;;;;;21.18;70.22;94018.78;4221360;28;20508;-60
2023/06/16 08:13:59;;;;;;;14.23;12.10;;;;;;;20.88;69.07;94023.59;4216052;28;20524;-57
2023/06/16 08:16:01;;;;;;;16.27;12.18;;;;;;;20.89;70.13;94009.22;4209946;28;20052;-59
2023/06/16 08:18:03;;;;;;;13.57;12.18;;;;;;;20.86;69.77;94013.19;4217218;28;20079;-61
2023/06/16 08:20:09;;;;;;;14.43;12.95;;;;;;;20.95;70.19;94013.59;4215578;28;20409;-60
2023/06/16 08:22:11;;;;;;;17.02;12.68;;;;;;;20.98;69.56;94018.47;4216695;28;20056;-58
2023/06/16 08:24:13;;;;;;;15.57;13.45;;;;;;;21.07;69.63;94025.81;4216459;28;20123;-59
2023/06/16 08:26:15;;;;;;;18.35;13.40;;;;;;;21.12;70.18;94026.94;4216848;28;20056;-58
2023/06/16 08:28:16;;;;;;;16.13;14.43;;;;;;;21.18;69.88;94024.13;4228796;28;20100;-58
2023/06/16 08:30:19;;;;;;;17.50;13.77;;;;;;;21.11;69.92;94028.81;4229372;27;20069;-59
2023/06/16 08:32:21;;;;;;;16.93;14.03;;;;;;;21.02;69.51;94031.06;4215650;28;20056;-57
2023/06/16 08:34:23;;;;;;;17.05;15.07;;;;;;;20.93;69.36;94027.19;4223453;28;20051;-60
2023/06/16 08:36:25;;;;;;;17.17;14.43;;;;;;;20.82;69.41;94026.19;4211538;27;20044;-59
2023/06/16 08:38:27;;;;;;;17.02;15.25;;;;;;;20.77;68.55;94023.41;4204946;28;20054;-58
2023/06/16 08:40:29;;;;;;;16.75;15.05;;;;;;;20.85;68.96;94025.69;4221580;28;20473;-59
2023/06/16 08:42:31;;;;;;;17.77;14.90;;;;;;;20.97;68.97;94030.97;4214605;28;20048;-60
2023/06/16 08:44:34;;;;;;;21.55;15.98;;;;;;;21.13;68.92;94020.59;4215817;28;20048;-59
2023/06/16 08:46:36;;;;;;;16.75;14.90;;;;;;;21.31;68.60;94024.88;4216309;28;20062;-59
2023/06/16 08:48:38;;;;;;;17.17;14.63;;;;;;;21.46;67.76;94019.81;4214804;28;20084;-60
2023/06/16 08:50:40;;;;;;;17.70;15.90;;;;;;;21.58;66.97;94017.88;4215164;28;20066;-55
2023/06/16 08:52:43;;;;;;;15.95;14.00;;;;;;;21.73;66.43;94022.63;4216399;28;20059;-57
2023/06/16 08:54:48;;;;;;;15.98;14.25;;;;;;;22.01;65.94;94015.53;4215227;28;20056;-58
2023/06/16 08:56:50;;;;;;;;;;;;;;;22.14;64.58;94012.50;4217499;28;20131;-60
2023/06/16 08:58:53;;;;;;;15.95;14.43;;;;;;;21.85;65.11;94012.66;4204373;28;19971;-57
2023/06/16 09:00:58;;;;;;;16.98;14.63;;;;;;;21.63;65.29;94017.13;4214542;28;20580;-62
2023/06/16 09:03:00;;;;;;;15.50;13.82;;;;;;;21.81;65.19;94016.03;4216914;28;20048;-60
2023/06/16 09:05:04;;;;;;;15.73;14.13;;;;;;;21.96;65.47;94013.59;4225597;28;20127;-62
2023/06/16 09:07:05;;;;;;;15.27;13.48;;;;;;;21.94;65.91;94018.38;4215738;28;20462;-58
2023/06/16 09:09:07;;;;;;;14.63;13.10;;;;;;;22.07;65.77;94026.03;4225069;28;20048;-59
2023/06/16 09:11:09;;;;;;;15.35;13.50;;;;;;;22.11;64.75;94014.84;4219141;27;20090;-58
2023/06/16 09:13:14;;;;;;;15.27;12.50;;;;;;;22.07;63.92;94018.00;4213705;28;20442;-59
2023/06/16 09:15:17;;;;;;;15.18;13.57;;;;;;;22.06;64.83;94023.59;4216062;28;20044;-59
2023/06/16 09:17:24;;;;;;;16.20;14.05;;;;;;;22.14;64.79;94019.69;4216298;28;20039;-57
2023/06/16 09:19:26;;;;;;;15.65;14.07;;;;;;;22.26;65.54;94017.72;4214846;28;20082;-60
2023/06/16 09:21:29;;;;;;;15.55;13.60;;;;;;;22.43;65.33;94009.66;4209407;28;20047;-59
2023/06/16 09:23:42;;;;;;;17.50;13.27;;;;;;;22.38;64.02;94009.63;4209517;28;20127;-58
2023/06/16 09:25:50;;;;;;;15.55;13.95;;;;;;;22.33;64.33;94007.69;4212806;28;20044;-58
2023/06/16 09:27:54;;;;;;;14.43;13.02;;;;;;;22.27;64.38;94006.03;4214844;28;20075;-58
2023/06/16 09:30:00;;;;;;;15.50;13.30;;;;;;;22.26;64.73;94010.56;4213231;28;20048;-58